Maersk Essen — V7UQ8 — position and weather

sailwx.info

Track history (hours):
 
Tides and Currents Weather Stations Pressure Air Temp Water Temp Dewpoint Dewpoint Depression Visibility Wind Speed Wind Dir Waves Ship Positions

Maersk Essen

Last reported at 2016-May-17 06:32 UTC. Time now 2016-May-31 00:15 UTC.
Position N 30°57' E 032°19'.
Warning: this ship's position is 13 days out of date.

Length 367 m; draft 14.7 m.

Type: Ship (hazmat cat A). MMSI: 538004007.

Date/timePositionNaut miles runAvg speedWind from/ knotsBaromVisibWave heightAir tempDewpointWater temp
2016-May-17 06:32N 30°57' E 032°19'9 9.0
2016-May-17 05:33N 31°06' E 032°18'8 8.3
2016-May-17 04:33N 31°14' E 032°21'8 8.2
2016-May-17 03:33N 31°22' E 032°23'6 6.4
2016-May-17 02:34N 31°27' E 032°19'2 1.9
2016-May-17 01:32N 31°28' E 032°18'0 0.0
2016-May-17 00:32N 31°28' E 032°18'0 0.0
2016-May-16 23:29N 31°28' E 032°18'0 0.0
2016-May-16 22:08N 31°28' E 032°18'7 3.6
2016-May-16 20:05N 31°33' E 032°11'916.8
2016-May-16 19:34N 31°39' E 032°04'1717.2
2016-May-16 18:34N 31°48' E 031°46'1817.5
2016-May-16 17:34N 31°56' E 031°28'1717.4
2016-May-16 16:33N 32°02' E 031°08'1717.4
2016-May-16 15:34N 32°07' E 030°49'1817.6
2016-May-16 14:34N 32°12' E 030°29'1817.9
2016-May-16 13:33N 32°18' E 030°09'5817.4
2016-May-16 10:14N 32°36' E 029°04'1218.0
2016-May-16 09:33N 32°40' E 028°50'64218.3
2016-May-14 22:33N 35°56' E 016°30'1818.1
2016-May-14 21:34N 36°02' E 016°09'4118.1
2016-May-14 19:18N 36°12' E 015°20'1418.7
2016-May-14 18:33N 36°17' E 015°04'1918.9
2016-May-14 17:34N 36°23' E 014°42'1918.5
2016-May-14 16:34N 36°28' E 014°19'1918.6
2016-May-14 15:34N 36°33' E 013°57'92618.7
2016-May-12 14:09N 36°01' W 005°11'1322.0
2016-May-12 13:34N 35°58' W 005°27'23716.9
2016-May-11 23:32N 37°47' W 009°49'3718.8
2016-May-11 21:33N 38°23' W 010°01'1918.9
2016-May-11 20:33N 38°42' W 010°06'1818.7
2016-May-11 19:34N 38°60' W 010°07'61918.6
2016-May-10 10:15N 48°51' W 005°52'1318.7
2016-May-10 09:33N 48°58' W 005°36'7418.0
2016-May-10 05:28N 49°35' W 003°58'1719.0
2016-May-10 04:34N 49°45' W 003°36'2120.7
2016-May-10 03:34N 49°55' W 003°08'2121.5
2016-May-10 02:34N 50°02' W 002°36'2020.1
2016-May-10 01:34N 49°59' W 002°05'2518.6
2016-May-10 00:12N 49°51' W 001°28'1116.9
2016-May-09 23:34N 49°47' W 001°13'1616.4
2016-May-09 22:34N 49°42' W 000°49'1716.9
2016-May-09 21:34N 49°36' W 000°24'1615.8
2016-May-09 20:33N 49°30' W 000°01'7 6.9
2016-May-09 19:32N 49°28' E 000°09'0 0.0
2016-May-09 18:32N 49°28' E 000°09'0 0.0
2016-May-09 17:32N 49°28' E 000°09'0 0.0
2016-May-09 16:32N 49°28' E 000°09'0 0.0
2016-May-09 15:32N 49°28' E 000°09'0 0.0
2016-May-09 14:32N 49°28' E 000°09'0 0.0
2016-May-09 13:32N 49°28' E 000°09'0 0.0
2016-May-09 12:32N 49°28' E 000°09'0 0.0
2016-May-09 11:32N 49°28' E 000°09'0 0.0
2016-May-09 10:32N 49°28' E 000°09'0 0.0
2016-May-09 09:32N 49°28' E 000°09'0 0.0
2016-May-09 08:32N 49°28' E 000°09'0 0.0
2016-May-09 07:32N 49°28' E 000°09'0 0.0
2016-May-09 06:32N 49°28' E 000°09'0 0.0
2016-May-09 05:32N 49°28' E 000°09'0 0.0
2016-May-09 04:32N 49°28' E 000°09'0 0.0
2016-May-09 03:32N 49°28' E 000°09'0 0.0
2016-May-09 02:32N 49°28' E 000°09'0 0.0
2016-May-09 01:32N 49°28' E 000°09'0 0.0
2016-May-09 00:32N 49°28' E 000°09'0 0.0
2016-May-08 23:32N 49°28' E 000°09'0 0.0
2016-May-08 22:32N 49°28' E 000°09'0 0.1
2016-May-08 21:34N 49°28' E 000°09'5 4.9
2016-May-08 20:33N 49°30' E 000°02'1010.1
2016-May-08 19:34N 49°36' W 000°11'7 7.2
2016-May-08 18:34N 49°43' W 000°10'1111.2
2016-May-08 17:34N 49°54' W 000°09'1212.1
2016-May-08 16:33N 50°06' W 000°09'1212.3
2016-May-08 15:33N 50°18' W 000°06'1211.6
2016-May-08 14:34N 50°28' E 000°02'1312.9
2016-May-08 13:33N 50°32' E 000°22'1211.7
2016-May-08 12:33N 50°37' E 000°39'2110.5
2016-May-08 10:33N 50°48' E 001°06'1111.3
2016-May-08 09:33N 50°56' E 001°20'1515.0
2016-May-08 08:33N 51°07' E 001°35'1514.8
2016-May-08 07:34N 51°18' E 001°51'1212.1
2016-May-08 06:33N 51°23' E 002°09'1312.8
2016-May-08 05:34N 51°23' E 002°29'1211.9
2016-May-08 04:33N 51°25' E 002°48'1716.7
2016-May-08 03:34N 51°25' E 003°15'1413.5
2016-May-08 02:33N 51°26' E 003°36'1211.7
2016-May-08 01:33N 51°21' E 003°53'8 7.6
2016-May-08 00:33N 51°22' E 004°05'8 7.8
2016-May-07 23:34N 51°19' E 004°16'1 0.9
2016-May-07 22:33N 51°18' E 004°16'0 0.0
2016-May-07 21:33N 51°18' E 004°16'0 0.0
2016-May-07 20:33N 51°18' E 004°16'0 0.0
2016-May-07 19:27N 51°18' E 004°16'0 0.0
2016-May-07 18:33N 51°18' E 004°16'0 0.0
2016-May-07 17:33N 51°18' E 004°16'0 0.0
2016-May-07 16:33N 51°18' E 004°16'0 0.0
2016-May-07 15:33N 51°18' E 004°16'0 0.0
2016-May-07 14:33N 51°18' E 004°16'0 0.0
2016-May-07 13:30N 51°18' E 004°16'0 0.0
2016-May-07 12:27N 51°18' E 004°16'0 0.0
2016-May-07 11:30N 51°18' E 004°16'0 0.0
2016-May-07 10:30N 51°18' E 004°16'0 0.0
2016-May-07 09:33N 51°18' E 004°16'0 0.0
2016-May-07 08:33N 51°18' E 004°16'0 0.0
2016-May-07 07:33N 51°18' E 004°16'0 0.0
2016-May-07 06:33N 51°18' E 004°16'  
Track history (hours):
 
Tides and Currents Weather Stations Pressure Air Temp Water Temp Dewpoint Dewpoint Depression Visibility Wind Speed Wind Dir Waves Ship Positions

Maersk Essen

Last reported at 2016-May-17 06:32 UTC. Time now 2016-May-31 00:15 UTC.
Position N 30°57' E 032°19'.
Warning: this ship's position is 13 days out of date.

Length 367 m; draft 14.7 m.

Type: Ship (hazmat cat A). MMSI: 538004007.

Date/timePositionNaut miles runAvg speedWind from/ knotsBaromVisibWave heightAir tempDewpointWater temp
2016-May-17 06:32N 30°57' E 032°19'9 9.0
2016-May-17 05:33N 31°06' E 032°18'8 8.3
2016-May-17 04:33N 31°14' E 032°21'8 8.2
2016-May-17 03:33N 31°22' E 032°23'6 6.4
2016-May-17 02:34N 31°27' E 032°19'2 1.9
2016-May-17 01:32N 31°28' E 032°18'0 0.0
2016-May-17 00:32N 31°28' E 032°18'0 0.0
2016-May-16 23:29N 31°28' E 032°18'0 0.0
2016-May-16 22:08N 31°28' E 032°18'7 3.6
2016-May-16 20:05N 31°33' E 032°11'916.8
2016-May-16 19:34N 31°39' E 032°04'1717.2
2016-May-16 18:34N 31°48' E 031°46'1817.5
2016-May-16 17:34N 31°56' E 031°28'1717.4
2016-May-16 16:33N 32°02' E 031°08'1717.4
2016-May-16 15:34N 32°07' E 030°49'1817.6
2016-May-16 14:34N 32°12' E 030°29'1817.9
2016-May-16 13:33N 32°18' E 030°09'5817.4
2016-May-16 10:14N 32°36' E 029°04'1218.0
2016-May-16 09:33N 32°40' E 028°50'64218.3
2016-May-14 22:33N 35°56' E 016°30'1818.1
2016-May-14 21:34N 36°02' E 016°09'4118.1
2016-May-14 19:18N 36°12' E 015°20'1418.7
2016-May-14 18:33N 36°17' E 015°04'1918.9
2016-May-14 17:34N 36°23' E 014°42'1918.5
2016-May-14 16:34N 36°28' E 014°19'1918.6
2016-May-14 15:34N 36°33' E 013°57'92618.7
2016-May-12 14:09N 36°01' W 005°11'1322.0
2016-May-12 13:34N 35°58' W 005°27'23716.9
2016-May-11 23:32N 37°47' W 009°49'3718.8
2016-May-11 21:33N 38°23' W 010°01'1918.9
2016-May-11 20:33N 38°42' W 010°06'1818.7
2016-May-11 19:34N 38°60' W 010°07'61918.6
2016-May-10 10:15N 48°51' W 005°52'1318.7
2016-May-10 09:33N 48°58' W 005°36'7418.0
2016-May-10 05:28N 49°35' W 003°58'1719.0
2016-May-10 04:34N 49°45' W 003°36'2120.7
2016-May-10 03:34N 49°55' W 003°08'2121.5
2016-May-10 02:34N 50°02' W 002°36'2020.1
2016-May-10 01:34N 49°59' W 002°05'2518.6
2016-May-10 00:12N 49°51' W 001°28'1116.9
2016-May-09 23:34N 49°47' W 001°13'1616.4
2016-May-09 22:34N 49°42' W 000°49'1716.9
2016-May-09 21:34N 49°36' W 000°24'1615.8
2016-May-09 20:33N 49°30' W 000°01'7 6.9
2016-May-09 19:32N 49°28' E 000°09'0 0.0
2016-May-09 18:32N 49°28' E 000°09'0 0.0
2016-May-09 17:32N 49°28' E 000°09'0 0.0
2016-May-09 16:32N 49°28' E 000°09'0 0.0
2016-May-09 15:32N 49°28' E 000°09'0 0.0
2016-May-09 14:32N 49°28' E 000°09'0 0.0
2016-May-09 13:32N 49°28' E 000°09'0 0.0
2016-May-09 12:32N 49°28' E 000°09'0 0.0
2016-May-09 11:32N 49°28' E 000°09'0 0.0
2016-May-09 10:32N 49°28' E 000°09'0 0.0
2016-May-09 09:32N 49°28' E 000°09'0 0.0
2016-May-09 08:32N 49°28' E 000°09'0 0.0
2016-May-09 07:32N 49°28' E 000°09'0 0.0
2016-May-09 06:32N 49°28' E 000°09'0 0.0
2016-May-09 05:32N 49°28' E 000°09'0 0.0
2016-May-09 04:32N 49°28' E 000°09'0 0.0
2016-May-09 03:32N 49°28' E 000°09'0 0.0
2016-May-09 02:32N 49°28' E 000°09'0 0.0
2016-May-09 01:32N 49°28' E 000°09'0 0.0
2016-May-09 00:32N 49°28' E 000°09'0 0.0
2016-May-08 23:32N 49°28' E 000°09'0 0.0
2016-May-08 22:32N 49°28' E 000°09'0 0.1
2016-May-08 21:34N 49°28' E 000°09'5 4.9
2016-May-08 20:33N 49°30' E 000°02'1010.1
2016-May-08 19:34N 49°36' W 000°11'7 7.2
2016-May-08 18:34N 49°43' W 000°10'1111.2
2016-May-08 17:34N 49°54' W 000°09'1212.1
2016-May-08 16:33N 50°06' W 000°09'1212.3
2016-May-08 15:33N 50°18' W 000°06'1211.6
2016-May-08 14:34N 50°28' E 000°02'1312.9
2016-May-08 13:33N 50°32' E 000°22'1211.7
2016-May-08 12:33N 50°37' E 000°39'2110.5
2016-May-08 10:33N 50°48' E 001°06'1111.3
2016-May-08 09:33N 50°56' E 001°20'1515.0
2016-May-08 08:33N 51°07' E 001°35'1514.8
2016-May-08 07:34N 51°18' E 001°51'1212.1
2016-May-08 06:33N 51°23' E 002°09'1312.8
2016-May-08 05:34N 51°23' E 002°29'1211.9
2016-May-08 04:33N 51°25' E 002°48'1716.7
2016-May-08 03:34N 51°25' E 003°15'1413.5
2016-May-08 02:33N 51°26' E 003°36'1211.7
2016-May-08 01:33N 51°21' E 003°53'8 7.6
2016-May-08 00:33N 51°22' E 004°05'8 7.8
2016-May-07 23:34N 51°19' E 004°16'1 0.9
2016-May-07 22:33N 51°18' E 004°16'0 0.0
2016-May-07 21:33N 51°18' E 004°16'0 0.0
2016-May-07 20:33N 51°18' E 004°16'0 0.0
2016-May-07 19:27N 51°18' E 004°16'0 0.0
2016-May-07 18:33N 51°18' E 004°16'0 0.0
2016-May-07 17:33N 51°18' E 004°16'0 0.0
2016-May-07 16:33N 51°18' E 004°16'0 0.0
2016-May-07 15:33N 51°18' E 004°16'0 0.0
2016-May-07 14:33N 51°18' E 004°16'0 0.0
2016-May-07 13:30N 51°18' E 004°16'0 0.0
2016-May-07 12:27N 51°18' E 004°16'0 0.0
2016-May-07 11:30N 51°18' E 004°16'0 0.0
2016-May-07 10:30N 51°18' E 004°16'0 0.0
2016-May-07 09:33N 51°18' E 004°16'0 0.0
2016-May-07 08:33N 51°18' E 004°16'0 0.0
2016-May-07 07:33N 51°18' E 004°16'0 0.0
2016-May-07 06:33N 51°18' E 004°16'  

Dump ship's entire track history